Time;durP1;ratioP1;P1;durP2;ratioP2;P2;SDS_P1;SDS_P2;PMS_P1;PMS_P2;Temp;Humidity;BMP_temperature;BMP_pressure;BME280_temperature;BME280_humidity;BME280_pressure;Samples;Min_cycle;Max_cycle;Signal;HPM_P1;HPM_P2
2021/12/23 05:00:21;;;;;;;24.43;14.80;;;-0.90;99.90;;;;;;6013769;23;20283;-69
2021/12/23 05:02:49;;;;;;;23.88;14.00;;;-0.90;99.90;;;;;;4951009;28;20764;-68
2021/12/23 05:05:16;;;;;;;22.58;13.98;;;-0.90;99.90;;;;;;4952432;29;20209;-70
2021/12/23 05:07:43;;;;;;;32.83;14.90;;;-0.80;99.90;;;;;;4938991;29;20202;-69
2021/12/23 05:10:12;;;;;;;28.48;15.00;;;-0.90;99.90;;;;;;4934387;29;20219;-69
2021/12/23 05:12:43;;;;;;;24.38;13.65;;;-0.90;99.90;;;;;;4921010;29;20674;-69
2021/12/23 05:15:11;;;;;;;22.95;13.90;;;-0.90;99.90;;;;;;4918591;29;20214;-70
2021/12/23 05:17:39;;;;;;;24.95;13.65;;;-0.80;99.90;;;;;;4933383;29;20603;-70
2021/12/23 05:20:07;;;;;;;25.90;13.52;;;-0.90;99.90;;;;;;4932789;29;20553;-68
2021/12/23 05:22:34;;;;;;;25.25;15.63;;;-0.80;99.90;;;;;;4917768;29;20239;-69
2021/12/23 05:25:01;;;;;;;22.33;15.90;;;-0.80;99.90;;;;;;4924966;29;20213;-69
2021/12/23 05:29:58;;;;;;;24.83;13.73;;;-0.90;99.90;;;;;;4979351;28;20227;-69
2021/12/23 05:32:25;;;;;;;13.55;9.07;;;-0.90;99.90;;;;;;4982352;28;20204;-69
2021/12/23 05:34:53;;;;;;;21.48;13.32;;;-0.90;99.90;;;;;;4980504;28;20684;-70
2021/12/23 05:37:19;;;;;;;20.40;13.35;;;-1.00;99.90;;;;;;4972754;28;20227;-70
2021/12/23 05:39:46;;;;;;;12.25;8.63;;;-0.90;99.90;;;;;;4972013;28;20227;-70
2021/12/23 05:42:13;;;;;;;21.15;13.15;;;-1.00;99.90;;;;;;4982943;28;20238;-71
2021/12/23 05:44:39;;;;;;;24.40;14.20;;;-1.00;99.90;;;;;;4983284;28;20208;-71
2021/12/23 05:47:06;;;;;;;26.20;13.55;;;-0.90;99.90;;;;;;4976370;28;20661;-70
2021/12/23 05:49:33;;;;;;;24.33;14.32;;;-0.90;99.90;;;;;;4989825;28;20239;-68
2021/12/23 05:52:02;;;;;;;14.45;8.70;;;-0.90;99.90;;;;;;4984962;28;20204;-70
2021/12/23 05:54:28;;;;;;;13.43;10.52;;;-0.90;99.90;;;;;;4986476;28;20208;-70
2021/12/23 05:56:57;;;;;;;17.80;11.80;;;-0.90;99.90;;;;;;4986234;28;20259;-69
2021/12/23 05:59:23;;;;;;;14.13;8.70;;;-0.90;99.90;;;;;;4971407;28;20238;-69
2021/12/23 06:01:50;;;;;;;26.70;14.55;;;-1.00;99.90;;;;;;4974295;28;20199;-69
2021/12/23 06:04:17;;;;;;;21.30;11.70;;;-1.00;99.90;;;;;;4990025;28;20208;-69
2021/12/23 06:06:43;;;;;;;22.90;14.63;;;-1.00;99.90;;;;;;4976246;28;20233;-68
2021/12/23 06:09:11;;;;;;;30.58;14.35;;;-1.00;99.90;;;;;;4989133;28;20224;-69
2021/12/23 06:11:38;;;;;;;23.42;12.85;;;-0.90;99.90;;;;;;4990221;28;20200;-70
2021/12/23 06:14:05;;;;;;;23.83;15.02;;;-0.90;99.90;;;;;;4973014;28;20216;-70
2021/12/23 06:16:32;;;;;;;24.92;14.90;;;-0.90;99.90;;;;;;4971827;28;20219;-70
2021/12/23 06:18:58;;;;;;;24.60;13.07;;;-0.80;99.90;;;;;;4971080;28;20232;-70
2021/12/23 06:21:28;;;;;;;22.92;13.80;;;-0.80;99.90;;;;;;4976502;28;20262;-70
2021/12/23 06:23:55;;;;;;;24.88;14.00;;;-0.80;99.90;;;;;;4972329;28;20236;-70
2021/12/23 06:26:23;;;;;;;28.65;14.68;;;-0.80;99.90;;;;;;4971239;28;20209;-70
2021/12/23 06:28:50;;;;;;;22.83;15.20;;;-0.80;99.90;;;;;;4980773;28;20228;-70
2021/12/23 06:31:17;;;;;;;30.33;14.98;;;-0.80;99.90;;;;;;4992764;28;20212;-70
2021/12/23 06:33:43;;;;;;;21.67;15.40;;;-0.70;99.90;;;;;;4985681;28;20207;-70
2021/12/23 06:36:10;;;;;;;20.02;14.23;;;-0.80;99.90;;;;;;4990443;28;20212;-69
2021/12/23 06:38:37;;;;;;;28.63;12.88;;;-0.70;99.90;;;;;;4994361;28;20715;-69
2021/12/23 06:41:04;;;;;;;18.95;11.35;;;-0.80;99.90;;;;;;4982420;28;20227;-69
2021/12/23 06:43:32;;;;;;;12.98;9.52;;;-0.80;99.90;;;;;;4974328;28;20232;-67
2021/12/23 06:46:00;;;;;;;17.95;13.50;;;-0.90;99.90;;;;;;4983906;28;20208;-68
2021/12/23 06:48:27;;;;;;;21.33;12.95;;;-0.90;99.90;;;;;;4987752;28;20231;-68
2021/12/23 06:50:55;;;;;;;18.83;11.80;;;-0.90;99.90;;;;;;4974721;28;20212;-69
2021/12/23 06:53:22;;;;;;;23.70;13.88;;;-0.90;99.90;;;;;;4979946;28;20283;-69
2021/12/23 06:55:50;;;;;;;23.05;13.07;;;-0.80;99.90;;;;;;4974901;28;20221;-68
2021/12/23 06:58:17;;;;;;;24.77;14.70;;;-0.80;99.90;;;;;;4981425;28;20231;-69
2021/12/23 07:00:45;;;;;;;20.58;14.15;;;-0.70;99.90;;;;;;4990299;28;20212;-70
2021/12/23 07:03:12;;;;;;;24.00;14.02;;;-0.70;99.90;;;;;;4985234;28;20224;-70
2021/12/23 07:05:39;;;;;;;26.80;14.75;;;-0.70;99.90;;;;;;4981734;28;20234;-70
2021/12/23 07:08:10;;;;;;;19.10;11.38;;;-0.70;99.90;;;;;;4978614;28;20649;-70
2021/12/23 07:10:37;;;;;;;13.23;7.13;;;-0.70;99.90;;;;;;4982430;28;20207;-70
2021/12/23 07:13:04;;;;;;;17.60;12.77;;;-0.80;99.90;;;;;;4978657;28;20216;-70
2021/12/23 07:15:32;;;;;;;18.10;12.43;;;-0.80;99.90;;;;;;4974195;28;20216;-70
2021/12/23 07:18:01;;;;;;;18.23;12.10;;;-0.80;99.90;;;;;;4983162;28;20231;-70
2021/12/23 07:20:29;;;;;;;20.35;12.52;;;-0.80;99.90;;;;;;4974618;28;20580;-70
2021/12/23 07:22:57;;;;;;;26.35;13.93;;;-0.80;99.90;;;;;;4974246;28;20299;-70
2021/12/23 07:25:23;;;;;;;21.13;12.40;;;-0.80;99.90;;;;;;4991469;28;20390;-69
2021/12/23 07:27:50;;;;;;;23.60;12.43;;;-0.80;99.90;;;;;;4985313;28;20220;-69
2021/12/23 07:30:19;;;;;;;14.45;8.95;;;-0.70;99.90;;;;;;4973414;28;20673;-70
2021/12/23 07:32:46;;;;;;;11.80;7.38;;;-0.70;99.90;;;;;;4990562;28;20282;-69
2021/12/23 07:35:14;;;;;;;16.92;8.98;;;-0.80;99.90;;;;;;4991894;28;20215;-70
2021/12/23 07:37:41;;;;;;;12.88;9.65;;;-0.80;99.90;;;;;;4986555;28;20208;-70
2021/12/23 07:40:13;;;;;;;15.02;10.40;;;-0.80;99.90;;;;;;4973408;28;20386;-69
2021/12/23 07:42:42;;;;;;;13.50;6.82;;;-0.80;99.90;;;;;;4974841;28;20263;-68
2021/12/23 07:45:09;;;;;;;22.65;14.90;;;-0.80;99.90;;;;;;4973659;28;20212;-70
2021/12/23 07:47:36;;;;;;;23.85;14.85;;;-0.70;99.90;;;;;;4979334;28;20266;-70
2021/12/23 07:50:04;;;;;;;24.23;14.15;;;-0.70;99.90;;;;;;4992886;28;20208;-70
2021/12/23 07:52:33;;;;;;;29.02;15.48;;;-0.60;99.90;;;;;;4976616;28;20200;-70
2021/12/23 07:54:59;;;;;;;30.83;17.33;;;-0.60;99.90;;;;;;4979621;28;20263;-70
2021/12/23 07:57:26;;;;;;;21.80;14.23;;;-0.50;99.90;;;;;;4978912;28;20204;-69
2021/12/23 07:59:53;;;;;;;31.45;15.50;;;-0.50;99.90;;;;;;4975602;28;20544;-71
2021/12/23 08:02:19;;;;;;;24.90;14.65;;;-0.50;99.90;;;;;;4987895;28;20208;-70
2021/12/23 08:04:46;;;;;;;25.58;15.20;;;-0.40;99.90;;;;;;4984374;28;20266;-71
2021/12/23 08:07:13;;;;;;;32.15;18.17;;;-0.40;99.90;;;;;;4973262;28;20583;-70
2021/12/23 08:09:41;;;;;;;31.90;18.33;;;-0.40;99.90;;;;;;4973946;28;20228;-70
2021/12/23 08:12:09;;;;;;;27.38;15.50;;;-0.30;99.90;;;;;;4973237;28;20219;-71
2021/12/23 08:14:36;;;;;;;23.20;15.02;;;-0.30;99.90;;;;;;4981480;28;20204;-70
2021/12/23 08:17:03;;;;;;;26.80;17.33;;;-0.30;99.90;;;;;;4977415;28;20751;-70
2021/12/23 08:19:29;;;;;;;25.63;17.90;;;-0.30;99.90;;;;;;4972827;28;20228;-70
2021/12/23 08:21:56;;;;;;;24.70;15.18;;;-0.20;99.90;;;;;;4978524;28;20200;-70
2021/12/23 08:24:23;;;;;;;26.00;14.45;;;-0.20;99.90;;;;;;4991824;28;20232;-69
2021/12/23 08:26:53;;;;;;;23.55;15.40;;;-0.20;99.90;;;;;;4981923;28;20196;-69
2021/12/23 08:29:20;;;;;;;22.30;13.95;;;-0.20;99.90;;;;;;4990906;28;20716;-70
2021/12/23 08:31:52;;;;;;;27.70;14.35;;;-0.10;99.90;;;;;;4987954;28;20212;-70
2021/12/23 08:34:19;;;;;;;24.95;13.98;;;-0.10;99.90;;;;;;4972316;28;20291;-70
2021/12/23 08:36:46;;;;;;;24.88;15.25;;;-0.10;99.90;;;;;;4972858;28;20256;-70
2021/12/23 08:39:14;;;;;;;21.27;13.95;;;0.00;99.90;;;;;;4972656;28;20319;-69
2021/12/23 08:41:41;;;;;;;24.17;13.95;;;0.00;99.90;;;;;;4978145;28;20200;-70
2021/12/23 08:44:09;;;;;;;22.73;14.98;;;0.00;99.90;;;;;;4986205;28;20539;-67
2021/12/23 08:46:36;;;;;;;20.30;14.60;;;0.10;99.90;;;;;;4972540;28;20216;-69
2021/12/23 08:49:03;;;;;;;23.65;15.82;;;0.20;99.90;;;;;;4975682;28;20596;-69
2021/12/23 08:51:30;;;;;;;25.75;18.27;;;0.20;99.90;;;;;;4991233;28;20302;-69
2021/12/23 08:53:57;;;;;;;23.90;14.50;;;0.20;99.90;;;;;;4989690;28;20258;-71
2021/12/23 08:56:23;;;;;;;24.83;15.63;;;0.20;99.90;;;;;;4972248;28;20208;-70
2021/12/23 08:58:50;;;;;;;22.23;13.85;;;0.20;99.90;;;;;;4972336;28;20236;-69
2021/12/23 09:01:18;;;;;;;18.85;13.73;;;0.20;99.90;;;;;;4987067;28;20296;-70
2021/12/23 09:03:45;;;;;;;21.63;13.40;;;0.20;99.90;;;;;;4971782;28;20236;-70
2021/12/23 09:06:11;;;;;;;26.15;16.45;;;0.20;99.90;;;;;;4976609;28;20236;-70
2021/12/23 09:08:38;;;;;;;21.98;15.68;;;0.20;99.90;;;;;;4971984;28;20649;-68
2021/12/23 09:11:05;;;;;;;20.98;14.05;;;0.30;99.90;;;;;;4988914;28;20219;-69
2021/12/23 09:13:32;;;;;;;20.15;13.55;;;0.30;99.90;;;;;;4978000;28;20212;-69
2021/12/23 09:16:00;;;;;;;26.42;15.48;;;0.30;99.90;;;;;;4979201;28;20212;-70
2021/12/23 09:18:28;;;;;;;24.20;16.52;;;0.40;99.90;;;;;;4986274;28;20638;-68
2021/12/23 09:20:56;;;;;;;26.77;15.18;;;0.40;99.90;;;;;;4976580;28;20204;-68
2021/12/23 09:23:23;;;;;;;20.50;14.00;;;0.50;99.90;;;;;;4981655;28;20225;-69
2021/12/23 09:25:54;;;;;;;24.08;16.60;;;0.50;99.90;;;;;;4978213;28;20209;-71
2021/12/23 09:28:33;;;;;;;24.25;15.43;;;0.50;99.90;;;;;;4980967;28;20273;-70
2021/12/23 09:33:47;;;;;;;23.95;14.75;;;0.50;99.90;;;;;;4980846;28;20814;-69
2021/12/23 09:36:14;;;;;;;26.35;14.98;;;0.60;99.90;;;;;;4981872;28;20200;-70
2021/12/23 09:38:41;;;;;;;19.52;12.85;;;0.60;99.90;;;;;;4978591;28;20224;-70
2021/12/23 09:41:10;;;;;;;21.60;13.50;;;0.60;99.90;;;;;;4971195;28;20641;-70
2021/12/23 09:43:39;;;;;;;21.52;14.63;;;0.50;99.90;;;;;;4981882;28;20223;-69
2021/12/23 09:46:08;;;;;;;23.17;13.77;;;0.50;99.90;;;;;;4989109;28;20298;-70
2021/12/23 09:48:35;;;;;;;14.63;10.70;;;0.40;99.90;;;;;;4980488;28;20559;-70
2021/12/23 09:51:06;;;;;;;21.35;14.00;;;0.40;99.90;;;;;;4971522;28;20263;-69
2021/12/23 09:53:37;;;;;;;23.27;13.80;;;0.50;99.90;;;;;;4971512;28;20200;-69
2021/12/23 09:56:04;;;;;;;20.50;14.25;;;0.50;99.90;;;;;;4972771;28;20215;-69
2021/12/23 09:58:31;;;;;;;25.38;15.35;;;0.60;99.90;;;;;;4990413;28;20278;-68
2021/12/23 10:00:59;;;;;;;29.77;17.52;;;0.70;99.90;;;;;;4982880;28;20227;-69
2021/12/23 10:03:28;;;;;;;27.13;14.85;;;0.70;99.90;;;;;;4972938;28;20582;-69
2021/12/23 10:05:56;;;;;;;23.40;15.32;;;0.80;99.90;;;;;;4994666;28;20610;-70
2021/12/23 10:08:24;;;;;;;24.27;16.90;;;0.80;99.90;;;;;;4977631;28;20275;-69
2021/12/23 10:10:55;;;;;;;22.45;15.52;;;0.80;99.90;;;;;;4975147;28;20255;-69
2021/12/23 10:38:32;;;;;;;17.08;12.75;;;0.80;99.90;;;;;;4987727;28;20253;-68
2021/12/23 10:41:02;;;;;;;18.25;12.98;;;0.70;99.90;;;;;;4988809;28;20212;-69
2021/12/23 10:43:33;;;;;;;19.60;12.30;;;0.70;99.90;;;;;;4986798;28;20282;-68
2021/12/23 10:46:02;;;;;;;24.50;14.95;;;0.70;99.90;;;;;;4977935;28;20263;-68
2021/12/23 10:48:32;;;;;;;24.50;14.07;;;0.70;99.90;;;;;;4985060;28;20224;-68
2021/12/23 10:51:05;;;;;;;24.77;14.45;;;0.70;99.90;;;;;;4994546;28;20215;-68
2021/12/23 10:53:47;;;;;;;28.80;17.98;;;0.80;99.90;;;;;;4986080;28;20208;-69
2021/12/23 10:59:10;;;;;;;28.65;16.70;;;0.90;99.90;;;;;;4974404;28;20334;-69
2021/12/23 11:01:59;;;;;;;24.70;15.45;;;0.90;99.90;;;;;;4974138;28;20215;-70
2021/12/23 11:04:28;;;;;;;23.33;16.55;;;1.00;99.90;;;;;;4987629;28;20707;-69
2021/12/23 11:07:12;;;;;;;35.05;22.15;;;1.00;99.90;;;;;;4993742;28;20207;-69
2021/12/23 11:09:59;;;;;;;28.20;17.65;;;1.00;99.90;;;;;;4979113;28;20591;-68
2021/12/23 11:38:08;;;;;;;27.60;19.10;;;1.40;99.90;;;;;;5123764;28;20218;-67
2021/12/23 11:43:32;;;;;;;29.92;17.60;;;1.50;99.90;;;;;;5106749;28;20212;-67
2021/12/23 11:46:00;;;;;;;26.65;18.95;;;1.50;99.90;;;;;;5107268;28;20578;-66
2021/12/23 11:48:28;;;;;;;25.30;17.25;;;1.60;99.90;;;;;;5106932;28;20261;-67
2021/12/23 11:51:06;;;;;;;26.23;16.52;;;1.60;99.90;;;;;;5107392;28;20293;-68
2021/12/23 11:53:34;;;;;;;24.65;16.83;;;1.60;99.90;;;;;;5106953;28;20196;-67
2021/12/23 11:56:04;;;;;;;24.38;17.35;;;1.60;99.90;;;;;;5107839;28;20207;-67
2021/12/23 11:58:30;;;;;;;30.25;21.45;;;1.70;99.90;;;;;;5104901;28;20227;-67
2021/12/23 12:01:06;;;;;;;30.67;17.60;;;1.70;99.90;;;;;;5107139;28;20196;-68
2021/12/23 12:03:40;;;;;;;27.73;19.70;;;1.60;99.90;;;;;;5098618;28;20209;-69
2021/12/23 12:06:15;;;;;;;24.98;17.40;;;1.60;99.90;;;;;;5107557;28;20200;-68
2021/12/23 12:08:42;;;;;;;24.85;17.80;;;1.60;99.90;;;;;;5106152;28;20571;-69
2021/12/23 12:11:17;;;;;;;21.20;14.95;;;1.60;99.90;;;;;;5106619;28;20692;-68
2021/12/23 12:13:44;;;;;;;26.30;17.40;;;1.60;99.90;;;;;;5101574;28;20224;-68
2021/12/23 12:16:34;;;;;;;29.30;18.73;;;1.60;99.90;;;;;;5086292;28;20578;-69
2021/12/23 12:19:04;;;;;;;20.73;15.70;;;1.60;99.90;;;;;;5086448;28;20240;-68
2021/12/23 12:21:33;;;;;;;22.05;16.30;;;1.60;99.90;;;;;;5094906;28;20200;-68
2021/12/23 12:24:08;;;;;;;26.58;16.27;;;1.60;99.90;;;;;;5087252;28;20296;-69
2021/12/23 12:26:37;;;;;;;21.80;14.75;;;1.60;99.90;;;;;;5092435;28;20664;-69
2021/12/23 12:29:05;;;;;;;20.33;15.27;;;1.60;99.90;;;;;;5106446;28;20222;-68
2021/12/23 12:31:41;;;;;;;24.33;15.80;;;1.60;99.90;;;;;;5105427;28;20250;-68
2021/12/23 12:34:11;;;;;;;28.30;17.30;;;1.60;99.90;;;;;;5106552;28;20584;-67
2021/12/23 12:36:44;;;;;;;25.25;15.50;;;1.60;99.90;;;;;;5101131;28;20213;-68
2021/12/23 12:39:24;;;;;;;23.15;15.82;;;1.60;99.90;;;;;;5094479;28;20224;-68
2021/12/23 12:41:51;;;;;;;26.95;16.85;;;1.60;99.90;;;;;;5102000;28;20192;-68
2021/12/23 12:44:26;;;;;;;40.90;23.92;;;1.60;99.90;;;;;;5087125;28;20268;-68
2021/12/23 12:47:07;;;;;;;34.17;20.27;;;1.60;99.90;;;;;;5092498;28;20250;-68
2021/12/23 12:49:38;;;;;;;46.33;22.83;;;1.60;99.90;;;;;;5084923;28;20225;-69
2021/12/23 12:52:24;;;;;;;33.53;22.95;;;1.60;99.90;;;;;;5079792;28;20220;-68
2021/12/23 12:54:57;;;;;;;31.08;21.08;;;1.60;99.90;;;;;;5091928;28;20792;-68
2021/12/23 12:57:31;;;;;;;28.60;19.75;;;1.60;99.90;;;;;;5093325;28;20353;-68
2021/12/23 13:00:00;;;;;;;35.03;21.73;;;1.60;99.90;;;;;;5091635;28;20246;-68
2021/12/23 13:02:31;;;;;;;27.20;18.38;;;1.60;99.90;;;;;;5092525;28;20197;-68
2021/12/23 13:05:08;;;;;;;28.83;18.65;;;1.60;99.90;;;;;;5083556;28;20198;-68
2021/12/23 13:07:36;;;;;;;26.02;18.10;;;1.60;99.90;;;;;;5072419;28;20212;-68
2021/12/23 13:10:10;;;;;;;28.42;15.90;;;1.60;99.90;;;;;;5092509;28;20568;-68
2021/12/23 13:12:46;;;;;;;25.65;17.67;;;1.60;99.90;;;;;;5091875;28;20204;-68
2021/12/23 13:15:18;;;;;;;23.88;15.98;;;1.70;99.90;;;;;;5072361;28;20220;-68
2021/12/23 13:18:05;;;;;;;24.52;17.95;;;1.70;99.90;;;;;;5085738;28;20618;-69
2021/12/23 13:20:45;;;;;;;25.83;17.35;;;1.70;99.90;;;;;;5092344;28;20254;-69
2021/12/23 13:23:16;;;;;;;22.83;17.15;;;1.70;99.90;;;;;;5084513;28;20614;-65
2021/12/23 13:26:02;;;;;;;23.95;17.67;;;1.70;99.90;;;;;;5088752;28;20205;-68
2021/12/23 13:28:34;;;;;;;26.80;16.90;;;1.70;99.90;;;;;;5088731;28;20236;-67
2021/12/23 13:31:01;;;;;;;25.05;16.60;;;1.70;99.90;;;;;;5090987;28;20228;-67
2021/12/23 13:33:28;;;;;;;27.40;16.92;;;1.70;99.90;;;;;;5089012;28;20560;-68
2021/12/23 13:35:58;;;;;;;25.70;17.05;;;1.70;99.90;;;;;;5087980;28;20204;-67
2021/12/23 13:38:38;;;;;;;26.23;17.05;;;1.70;99.90;;;;;;5075441;28;20240;-67
2021/12/23 13:41:16;;;;;;;44.28;24.85;;;1.70;99.90;;;;;;5088055;28;20227;-67
2021/12/23 13:43:44;;;;;;;41.08;23.92;;;1.80;99.90;;;;;;5072512;28;20256;-68
2021/12/23 13:46:11;;;;;;;49.63;29.52;;;1.80;99.90;;;;;;5087150;28;20546;-69
2021/12/23 13:48:53;;;;;;;43.40;25.83;;;1.80;99.90;;;;;;5084820;28;20224;-68
2021/12/23 13:51:24;;;;;;;53.85;31.60;;;1.80;99.90;;;;;;5091425;28;20252;-69
2021/12/23 13:54:05;;;;;;;35.90;21.70;;;1.80;99.90;;;;;;5082657;28;20610;-68
2021/12/23 13:56:33;;;;;;;34.60;23.08;;;1.70;99.90;;;;;;5092076;28;20212;-69
2021/12/23 13:59:08;;;;;;;27.38;17.88;;;1.70;99.90;;;;;;5090500;28;20273;-69
2021/12/23 14:01:50;;;;;;;25.08;17.45;;;1.70;99.90;;;;;;5091154;28;20207;-68
2021/12/23 14:04:32;;;;;;;30.40;21.52;;;1.70;99.90;;;;;;5084638;28;20704;-68
2021/12/23 14:07:01;;;;;;;22.75;15.90;;;1.70;99.90;;;;;;5090882;28;20234;-68
2021/12/23 14:09:33;;;;;;;28.77;18.25;;;1.70;99.90;;;;;;5089806;28;20227;-69
2021/12/23 14:12:00;;;;;;;30.98;19.30;;;1.60;99.90;;;;;;5089339;28;20220;-68
2021/12/23 14:14:27;;;;;;;28.00;18.70;;;1.60;99.90;;;;;;5089292;28;20391;-69
2021/12/23 14:16:54;;;;;;;32.25;18.42;;;1.60;99.90;;;;;;5090782;28;20208;-69
2021/12/23 14:19:25;;;;;;;31.85;20.50;;;1.60;99.90;;;;;;5085816;28;20229;-69
2021/12/23 14:24:39;;;;;;;45.55;24.88;;;1.60;99.90;;;;;;5085121;28;20215;-69
2021/12/23 14:27:06;;;;;;;31.60;19.52;;;1.60;99.90;;;;;;5091297;28;20211;-68
2021/12/23 14:29:35;;;;;;;28.90;19.17;;;1.60;99.90;;;;;;5070327;28;20244;-68
2021/12/23 14:32:02;;;;;;;28.92;18.58;;;1.50;99.90;;;;;;5087618;28;20216;-69
2021/12/23 14:34:34;;;;;;;28.33;18.35;;;1.50;99.90;;;;;;5090490;28;20200;-70
2021/12/23 14:37:02;;;;;;;29.27;18.67;;;1.50;99.90;;;;;;5091673;28;20200;-70
2021/12/23 14:39:31;;;;;;;35.67;23.38;;;1.50;99.90;;;;;;5090858;28;20273;-69
2021/12/23 14:42:02;;;;;;;33.13;21.05;;;1.50;99.90;;;;;;5091093;28;20196;-69
2021/12/23 14:44:33;;;;;;;32.35;20.70;;;1.40;99.90;;;;;;5090773;28;20215;-68
2021/12/23 14:47:07;;;;;;;37.83;24.17;;;1.40;99.90;;;;;;5091135;28;20218;-69
2021/12/23 14:52:34;;;;;;;33.78;20.63;;;1.40;99.90;;;;;;5086874;28;20241;-69
2021/12/23 14:55:09;;;;;;;31.15;20.90;;;1.40;99.90;;;;;;5093215;28;20687;-69
2021/12/23 14:57:39;;;;;;;29.73;19.85;;;1.40;99.90;;;;;;5091404;28;20228;-70
2021/12/23 15:00:10;;;;;;;29.75;20.48;;;1.40;99.90;;;;;;5089992;28;20250;-69
2021/12/23 15:02:37;;;;;;;33.28;20.38;;;1.40;99.90;;;;;;5090034;28;20209;-69
2021/12/23 15:05:10;;;;;;;34.50;20.30;;;1.40;99.90;;;;;;5087430;28;20212;-69
2021/12/23 15:07:55;;;;;;;28.95;19.80;;;1.40;99.90;;;;;;5090247;28;20208;-68
2021/12/23 15:10:41;;;;;;;31.63;19.55;;;1.60;99.90;;;;;;5084956;28;20208;-69
2021/12/23 15:13:31;;;;;;;28.00;19.83;;;1.60;99.90;;;;;;5086348;28;20217;-68
2021/12/23 15:16:06;;;;;;;31.10;18.80;;;1.50;99.90;;;;;;5067860;28;20209;-69
2021/12/23 15:18:44;;;;;;;32.67;19.85;;;1.50;99.90;;;;;;5071038;28;20232;-68
2021/12/23 15:21:29;;;;;;;31.25;21.38;;;1.50;99.90;;;;;;5070457;28;20212;-70
2021/12/23 15:23:56;;;;;;;28.55;18.58;;;1.50;99.90;;;;;;5080518;28;20245;-70
2021/12/23 15:26:32;;;;;;;33.28;20.48;;;1.50;99.90;;;;;;5090132;28;20692;-70
2021/12/23 15:29:19;;;;;;;44.10;25.00;;;1.50;99.90;;;;;;5079906;28;20282;-70
2021/12/23 15:31:54;;;;;;;36.95;21.63;;;1.50;99.90;;;;;;5082970;28;20277;-70
2021/12/23 15:34:22;;;;;;;33.70;19.70;;;1.50;99.90;;;;;;5090082;28;20204;-70
2021/12/23 15:36:50;;;;;;;31.95;20.05;;;1.50;99.90;;;;;;5088504;28;20269;-70
2021/12/23 15:39:20;;;;;;;36.75;21.15;;;1.50;99.90;;;;;;5086972;28;20240;-70
2021/12/23 15:41:47;;;;;;;39.08;21.88;;;1.50;99.90;;;;;;5085415;28;20208;-69
2021/12/23 15:44:13;;;;;;;36.33;22.00;;;1.50;99.90;;;;;;5089807;28;20216;-70
2021/12/23 15:46:42;;;;;;;38.22;20.75;;;1.50;99.90;;;;;;5088188;28;20201;-70
2021/12/23 15:49:08;;;;;;;37.85;24.10;;;1.50;99.90;;;;;;5083809;28;20216;-69
2021/12/23 15:51:37;;;;;;;46.50;28.23;;;1.50;99.90;;;;;;5083211;28;20672;-69
2021/12/23 15:54:05;;;;;;;45.13;25.48;;;1.50;99.90;;;;;;5088477;28;20212;-69
2021/12/23 15:56:32;;;;;;;39.38;23.80;;;1.50;99.90;;;;;;5079830;28;20725;-69
2021/12/23 15:58:59;;;;;;;37.80;21.33;;;1.50;99.90;;;;;;5084391;28;20228;-68
2021/12/23 16:01:27;;;;;;;37.97;22.52;;;1.50;99.90;;;;;;5081451;28;20337;-70
2021/12/23 16:03:56;;;;;;;37.15;21.38;;;1.50;99.90;;;;;;5071107;28;20216;-68
2021/12/23 16:09:07;;;;;;;38.40;20.77;;;1.50;99.90;;;;;;5089217;28;20277;-68
2021/12/23 16:11:34;;;;;;;39.33;20.58;;;1.50;99.90;;;;;;5089621;28;20270;-68
2021/12/23 16:14:01;;;;;;;37.53;23.40;;;1.50;99.90;;;;;;5087724;28;20205;-67
2021/12/23 16:16:27;;;;;;;41.25;20.50;;;1.50;99.90;;;;;;5089121;28;20274;-68
2021/12/23 16:18:55;;;;;;;39.10;21.20;;;1.60;99.90;;;;;;5080528;28;20225;-67
2021/12/23 16:21:22;;;;;;;48.72;24.08;;;1.50;99.90;;;;;;5077461;28;20204;-67
2021/12/23 16:23:49;;;;;;;48.88;29.55;;;1.60;99.90;;;;;;5091415;28;20205;-68
2021/12/23 16:26:16;;;;;;;44.88;23.75;;;1.60;99.90;;;;;;5093583;28;20204;-68
2021/12/23 16:28:42;;;;;;;48.40;28.30;;;1.60;99.90;;;;;;5082712;28;20221;-68
2021/12/23 16:31:12;;;;;;;36.47;21.38;;;1.60;99.90;;;;;;5079629;28;20208;-67
2021/12/23 16:33:39;;;;;;;36.28;21.23;;;1.60;99.90;;;;;;5083863;28;20713;-68
2021/12/23 16:36:07;;;;;;;42.75;22.98;;;1.60;99.90;;;;;;5080548;28;20301;-67
2021/12/23 16:38:34;;;;;;;40.08;22.80;;;1.60;99.90;;;;;;5085288;28;20275;-68
2021/12/23 16:41:01;;;;;;;46.03;25.80;;;1.60;99.90;;;;;;5083651;28;20603;-67
2021/12/23 16:43:29;;;;;;;49.15;29.10;;;1.60;99.90;;;;;;5072564;28;20259;-67
2021/12/23 16:45:57;;;;;;;41.90;25.17;;;1.60;99.90;;;;;;5090911;28;20197;-68
2021/12/23 16:48:23;;;;;;;44.20;27.02;;;1.60;99.90;;;;;;5092522;28;20759;-67
2021/12/23 16:50:50;;;;;;;44.42;24.27;;;1.60;99.90;;;;;;5088994;28;20212;-69
2021/12/23 16:53:19;;;;;;;53.58;29.48;;;1.60;99.90;;;;;;5089657;28;20769;-68
2021/12/23 16:56:03;;;;;;;40.45;24.02;;;1.60;99.90;;;;;;5089893;28;20208;-68
2021/12/23 16:58:32;;;;;;;39.53;21.92;;;1.70;99.90;;;;;;5086650;28;20225;-68
2021/12/23 17:00:59;;;;;;;55.20;26.52;;;1.70;99.90;;;;;;5090682;28;20212;-68
2021/12/23 17:03:26;;;;;;;39.60;23.63;;;1.70;99.90;;;;;;5093045;28;20224;-67
2021/12/23 17:05:53;;;;;;;43.28;24.80;;;1.70;99.90;;;;;;5091894;28;20197;-67
2021/12/23 17:08:21;;;;;;;46.17;25.50;;;1.70;99.90;;;;;;5092134;28;20582;-68
2021/12/23 17:10:49;;;;;;;40.88;21.55;;;1.80;99.90;;;;;;5075926;28;20679;-68
2021/12/23 17:13:17;;;;;;;39.63;22.42;;;1.80;99.90;;;;;;5092035;28;20220;-68
2021/12/23 17:15:45;;;;;;;57.33;31.50;;;1.80;99.90;;;;;;5090313;28;20209;-68
2021/12/23 17:18:20;;;;;;;43.55;25.05;;;1.80;99.90;;;;;;5090445;28;20274;-69
2021/12/23 17:23:35;;;;;;;46.67;24.92;;;1.80;99.90;;;;;;5086489;28;20617;-69
2021/12/23 17:26:03;;;;;;;50.38;27.83;;;1.80;99.90;;;;;;5092422;28;20205;-68
2021/12/23 17:28:29;;;;;;;41.60;25.02;;;1.80;99.90;;;;;;5090954;28;20217;-69
2021/12/23 17:30:56;;;;;;;49.58;24.45;;;1.80;99.90;;;;;;5091248;28;20681;-69
2021/12/23 17:33:25;;;;;;;47.92;24.13;;;1.80;99.90;;;;;;5086411;28;20572;-69
2021/12/23 17:35:53;;;;;;;49.60;24.98;;;1.80;99.90;;;;;;5071915;28;20205;-68
2021/12/23 17:38:20;;;;;;;48.95;24.55;;;1.80;99.90;;;;;;5084452;28;20221;-69
2021/12/23 17:40:50;;;;;;;43.03;27.05;;;1.80;99.90;;;;;;5080314;28;20204;-70
2021/12/23 17:43:18;;;;;;;43.42;25.05;;;1.80;99.90;;;;;;5091437;28;20246;-70
2021/12/23 17:45:46;;;;;;;46.30;26.33;;;1.80;99.90;;;;;;5091195;28;20216;-70
2021/12/23 17:48:13;;;;;;;53.83;26.50;;;1.80;99.90;;;;;;5091939;28;20278;-68
2021/12/23 17:50:42;;;;;;;41.67;23.77;;;1.80;99.90;;;;;;5086416;28;20205;-68
2021/12/23 17:53:10;;;;;;;58.08;26.98;;;1.80;99.90;;;;;;5073662;28;20252;-68
2021/12/23 17:55:37;;;;;;;42.95;24.38;;;1.80;99.90;;;;;;5088467;28;20207;-67
2021/12/23 17:58:08;;;;;;;48.80;22.75;;;1.80;99.90;;;;;;5070547;28;20225;-68
2021/12/23 18:00:35;;;;;;;37.50;22.85;;;1.80;99.90;;;;;;5084652;28;20212;-68
2021/12/23 18:03:02;;;;;;;42.17;24.13;;;1.90;99.90;;;;;;5083147;28;20276;-69
2021/12/23 18:05:28;;;;;;;41.25;21.92;;;1.90;99.90;;;;;;5091324;28;20293;-69
2021/12/23 18:07:55;;;;;;;43.95;24.13;;;1.90;99.90;;;;;;5088527;28;20285;-68
2021/12/23 18:10:22;;;;;;;46.70;25.08;;;1.90;99.90;;;;;;5075660;28;20197;-68
2021/12/23 18:12:50;;;;;;;49.30;27.95;;;1.90;99.90;;;;;;5077253;28;20302;-69
2021/12/23 18:15:18;;;;;;;48.40;27.17;;;1.90;99.90;;;;;;5090981;28;20597;-69
2021/12/23 18:17:45;;;;;;;44.17;26.55;;;1.90;99.90;;;;;;5090137;28;20201;-70
2021/12/23 18:20:12;;;;;;;51.33;27.15;;;1.90;99.90;;;;;;5092242;28;20204;-69
2021/12/23 18:22:38;;;;;;;46.72;25.52;;;1.90;99.90;;;;;;5093309;28;20222;-71
2021/12/23 18:25:07;;;;;;;48.70;25.70;;;1.90;99.90;;;;;;5084461;28;20281;-70
2021/12/23 18:27:36;;;;;;;55.15;28.08;;;1.90;99.90;;;;;;5088542;28;20253;-69
2021/12/23 18:30:05;;;;;;;47.63;26.02;;;2.00;99.90;;;;;;5089403;28;20658;-69
2021/12/23 18:32:33;;;;;;;46.47;24.83;;;2.00;99.90;;;;;;5090376;28;20213;-68
2021/12/23 18:35:01;;;;;;;50.70;25.23;;;2.00;99.90;;;;;;5087152;28;20251;-69
2021/12/23 18:37:28;;;;;;;44.72;25.45;;;2.00;99.90;;;;;;5089028;28;20752;-69
2021/12/23 18:39:56;;;;;;;48.28;26.27;;;2.00;99.90;;;;;;5095033;28;20239;-68
2021/12/23 18:42:27;;;;;;;53.95;27.75;;;2.00;99.90;;;;;;5098568;28;20299;-69
2021/12/23 18:44:53;;;;;;;52.75;30.23;;;2.00;99.90;;;;;;5096241;28;20203;-69
2021/12/23 18:47:20;;;;;;;51.95;26.83;;;2.00;99.90;;;;;;5093462;28;20212;-69
2021/12/23 18:49:48;;;;;;;53.65;29.83;;;2.00;99.90;;;;;;5082174;28;20212;-68
2021/12/23 18:52:15;;;;;;;51.30;29.85;;;2.00;99.90;;;;;;5092904;28;20664;-69
2021/12/23 18:54:42;;;;;;;45.60;24.65;;;2.00;99.90;;;;;;5092756;28;20200;-69
2021/12/23 18:57:08;;;;;;;45.30;27.08;;;2.00;99.90;;;;;;5090768;28;20196;-68